createdAt,value
2022-09-29T00:02:06.644Z,11.30
2022-09-29T00:04:33.100Z,12.48
2022-09-29T00:07:00.765Z,12.00
2022-09-29T00:09:27.203Z,12.77
2022-09-29T00:11:55.653Z,13.85
2022-09-29T00:14:23.009Z,14.27
2022-09-29T00:16:49.390Z,14.00
2022-09-29T00:19:16.317Z,14.43
2022-09-29T00:21:42.838Z,13.80
2022-09-29T00:24:09.265Z,14.43
2022-09-29T00:26:35.830Z,15.13
2022-09-29T00:29:02.262Z,13.75
2022-09-29T00:31:32.117Z,14.02
2022-09-29T00:33:59.077Z,15.30
2022-09-29T00:36:29.934Z,13.30
2022-09-29T00:38:57.956Z,13.80
2022-09-29T00:41:29.978Z,14.23
2022-09-29T00:44:02.924Z,13.77
2022-09-29T00:46:58.672Z,13.73
2022-09-29T00:49:24.970Z,14.45
2022-09-29T00:52:20.715Z,14.77
2022-09-29T00:54:55.255Z,15.00
2022-09-29T00:57:27.613Z,13.15
2022-09-29T01:00:11.349Z,13.50
2022-09-29T01:02:42.636Z,13.32
2022-09-29T01:05:14.084Z,13.55
2022-09-29T01:07:44.116Z,12.98
2022-09-29T01:10:12.505Z,12.85
2022-09-29T01:12:38.865Z,12.57
2022-09-29T01:15:05.848Z,12.13
2022-09-29T01:17:32.194Z,12.30
2022-09-29T01:20:13.282Z,12.23
2022-09-29T01:23:33.329Z,11.85
2022-09-29T01:26:22.975Z,11.57
2022-09-29T01:29:07.484Z,12.90
2022-09-29T01:31:59.680Z,11.35
2022-09-29T01:34:42.242Z,11.40
2022-09-29T01:37:26.356Z,11.70
2022-09-29T01:40:38.235Z,10.88
2022-09-29T01:43:09.629Z,11.65
2022-09-29T01:45:40.312Z,11.43
2022-09-29T01:48:15.397Z,13.13
2022-09-29T01:50:46.740Z,10.77
2022-09-29T01:53:18.695Z,10.73
2022-09-29T01:55:51.383Z,10.25
2022-09-29T01:58:23.970Z,9.95
2022-09-29T02:00:56.879Z,10.18
2022-09-29T02:03:30.480Z,10.57
2022-09-29T02:06:10.304Z,10.45
2022-09-29T02:08:40.425Z,9.50
2022-09-29T02:11:15.040Z,10.05
2022-09-29T02:13:56.024Z,10.40
2022-09-29T02:16:28.963Z,10.02
2022-09-29T02:19:07.428Z,10.95
2022-09-29T02:21:34.265Z,10.30
2022-09-29T02:24:00.987Z,10.48
2022-09-29T02:26:34.440Z,10.65
2022-09-29T02:29:06.200Z,9.45
2022-09-29T02:31:33.780Z,10.32
2022-09-29T02:34:02.316Z,9.73
2022-09-29T02:36:40.791Z,10.35
2022-09-29T02:39:21.700Z,11.60
2022-09-29T02:42:06.404Z,9.38
2022-09-29T02:44:51.380Z,9.15
2022-09-29T02:47:36.473Z,9.30
2022-09-29T02:50:17.480Z,9.27
2022-09-29T02:53:05.015Z,9.38
2022-09-29T02:55:41.792Z,9.02
2022-09-29T02:58:18.608Z,9.77
2022-09-29T03:00:47.592Z,8.02
2022-09-29T03:03:14.026Z,9.73
2022-09-29T03:05:40.523Z,8.95
2022-09-29T03:08:07.058Z,9.43
2022-09-29T03:10:33.510Z,9.27
2022-09-29T03:12:59.900Z,9.18
2022-09-29T03:15:26.251Z,9.63
2022-09-29T03:17:56.567Z,9.10
2022-09-29T03:20:23.520Z,9.35
2022-09-29T03:22:49.858Z,8.75
2022-09-29T03:25:16.502Z,9.40
2022-09-29T03:27:42.834Z,9.02
2022-09-29T03:30:11.775Z,9.70
2022-09-29T03:32:38.142Z,9.18
2022-09-29T03:35:05.109Z,8.75
2022-09-29T03:37:31.443Z,9.07
2022-09-29T03:39:57.804Z,10.07
2022-09-29T03:42:24.395Z,8.88
2022-09-29T03:44:50.742Z,9.27
2022-09-29T03:47:17.282Z,8.50
2022-09-29T03:49:45.707Z,9.50
2022-09-29T03:52:12.291Z,9.60
2022-09-29T03:54:38.692Z,9.32
2022-09-29T03:57:05.265Z,9.35
2022-09-29T03:59:31.612Z,9.32
2022-09-29T04:01:58.106Z,9.50
2022-09-29T04:04:24.614Z,9.45
2022-09-29T04:06:51.108Z,8.85
2022-09-29T04:09:17.510Z,8.98
2022-09-29T04:11:43.936Z,8.75
2022-09-29T04:14:10.504Z,8.85
2022-09-29T04:16:36.980Z,8.90
2022-09-29T04:19:03.645Z,8.98
2022-09-29T04:21:30.098Z,9.13
2022-09-29T04:23:56.464Z,8.77
2022-09-29T04:26:23.081Z,9.00
2022-09-29T04:28:49.511Z,8.52
2022-09-29T04:31:15.961Z,9.20
2022-09-29T04:33:42.492Z,9.10
2022-09-29T04:36:09.049Z,8.80
2022-09-29T04:38:35.579Z,8.20
2022-09-29T04:41:02.124Z,9.57
2022-09-29T04:43:28.584Z,8.95
2022-09-29T04:46:04.836Z,9.38
2022-09-29T04:48:35.000Z,9.48
2022-09-29T04:51:02.741Z,10.23
2022-09-29T04:53:30.230Z,8.82
2022-09-29T04:55:56.688Z,9.20
2022-09-29T04:58:23.129Z,8.68
2022-09-29T05:00:49.571Z,9.25
2022-09-29T05:03:16.001Z,9.20
2022-09-29T05:05:42.408Z,10.10
2022-09-29T05:08:08.782Z,9.25
2022-09-29T05:10:35.284Z,9.60
2022-09-29T05:13:01.623Z,10.25
2022-09-29T05:15:28.039Z,9.43
2022-09-29T05:17:55.467Z,9.77
2022-09-29T05:20:21.932Z,9.23
2022-09-29T05:22:48.258Z,9.57
2022-09-29T05:25:14.724Z,9.75
2022-09-29T05:27:41.279Z,11.88
2022-09-29T05:30:10.428Z,14.63
2022-09-29T05:32:36.867Z,12.82
2022-09-29T05:35:04.021Z,13.60
2022-09-29T05:37:30.507Z,11.63
2022-09-29T05:39:57.130Z,11.95
2022-09-29T05:42:25.783Z,12.32
2022-09-29T05:44:53.303Z,12.60
2022-09-29T05:47:19.880Z,12.25
2022-09-29T05:49:46.241Z,12.18
2022-09-29T05:52:12.622Z,12.88
2022-09-29T05:54:40.035Z,11.68
2022-09-29T05:57:06.940Z,10.82
2022-09-29T05:59:33.300Z,11.20
2022-09-29T06:01:59.709Z,10.93
2022-09-29T06:04:26.094Z,14.63
2022-09-29T06:06:52.957Z,11.60
2022-09-29T06:09:19.355Z,11.18
2022-09-29T06:11:45.948Z,12.43
2022-09-29T06:14:12.378Z,12.70
2022-09-29T06:16:38.894Z,11.80
2022-09-29T06:19:05.433Z,11.65
2022-09-29T06:21:34.576Z,11.75
2022-09-29T06:24:01.434Z,11.30
2022-09-29T06:26:28.389Z,12.23
2022-09-29T06:28:55.909Z,12.23
2022-09-29T06:31:25.533Z,12.35
2022-09-29T06:33:52.218Z,12.07
2022-09-29T06:36:50.263Z,13.13
2022-09-29T06:39:17.455Z,12.43
2022-09-29T06:41:48.780Z,13.32
2022-09-29T06:44:15.894Z,14.13
2022-09-29T06:46:42.424Z,13.40
2022-09-29T06:49:10.880Z,14.23
2022-09-29T06:51:45.185Z,13.80
2022-09-29T06:54:13.825Z,14.48
2022-09-29T06:56:40.721Z,14.68
2022-09-29T06:59:07.628Z,15.27
2022-09-29T07:01:34.316Z,14.70
2022-09-29T07:04:02.426Z,14.65
2022-09-29T07:06:29.789Z,13.57
2022-09-29T07:08:57.627Z,14.98
2022-09-29T07:11:24.082Z,14.73
2022-09-29T07:13:54.427Z,14.38
2022-09-29T07:16:23.970Z,16.02
2022-09-29T07:18:51.177Z,16.42
2022-09-29T07:21:18.601Z,15.98
2022-09-29T07:23:46.796Z,15.63
2022-09-29T07:26:14.137Z,15.38
2022-09-29T07:28:40.623Z,16.20
2022-09-29T07:31:16.316Z,15.70
2022-09-29T07:33:44.648Z,16.90
2022-09-29T07:36:11.949Z,15.25
2022-09-29T07:38:38.381Z,15.70
2022-09-29T07:41:09.184Z,15.48
2022-09-29T07:43:36.064Z,18.02
2022-09-29T07:46:02.826Z,16.55
2022-09-29T07:48:32.117Z,17.45
2022-09-29T07:51:10.018Z,16.30
2022-09-29T07:53:37.057Z,16.08
2022-09-29T07:56:08.845Z,15.25
2022-09-29T07:58:36.205Z,14.63
2022-09-29T08:01:05.187Z,13.68
2022-09-29T08:03:32.525Z,14.07
2022-09-29T08:05:59.181Z,13.52
2022-09-29T08:08:26.436Z,13.93
2022-09-29T08:10:53.980Z,13.43
2022-09-29T08:13:20.710Z,14.50
2022-09-29T08:15:47.251Z,14.00
2022-09-29T08:18:13.780Z,14.55
2022-09-29T08:20:40.214Z,14.30
2022-09-29T08:23:07.723Z,15.45
2022-09-29T08:25:36.135Z,15.68
2022-09-29T08:28:02.790Z,16.48
2022-09-29T08:30:29.579Z,15.68
2022-09-29T08:32:56.824Z,15.63
2022-09-29T08:35:23.329Z,15.18
2022-09-29T08:37:49.855Z,14.85
2022-09-29T08:40:17.772Z,14.85
2022-09-29T08:43:04.123Z,14.85
2022-09-29T08:45:35.766Z,15.00
2022-09-29T08:48:21.902Z,15.05
2022-09-29T08:50:59.417Z,13.63
2022-09-29T08:53:29.658Z,13.13
2022-09-29T08:56:26.148Z,12.93
2022-09-29T08:58:52.777Z,13.05
2022-09-29T09:02:01.339Z,12.38
2022-09-29T09:05:01.802Z,12.32
2022-09-29T09:07:37.893Z,12.90
2022-09-29T09:10:14.464Z,12.55
2022-09-29T09:13:05.566Z,12.63
2022-09-29T09:15:55.556Z,12.88
2022-09-29T09:18:51.644Z,11.15
2022-09-29T09:21:33.490Z,11.20
2022-09-29T09:24:46.830Z,11.65
2022-09-29T09:27:20.353Z,10.30
2022-09-29T09:29:49.496Z,11.93
2022-09-29T09:32:28.332Z,10.98
2022-09-29T09:35:23.859Z,10.80
2022-09-29T09:37:53.703Z,11.63
2022-09-29T09:40:24.840Z,10.98
2022-09-29T09:43:02.926Z,11.68
2022-09-29T09:45:53.981Z,11.57
2022-09-29T09:48:32.851Z,12.38
2022-09-29T09:51:05.492Z,11.73
2022-09-29T09:53:40.463Z,12.85
2022-09-29T09:56:38.847Z,12.13
2022-09-29T09:59:26.715Z,11.60
2022-09-29T10:01:53.342Z,11.57
2022-09-29T10:04:20.482Z,11.77
2022-09-29T10:06:46.914Z,12.05
2022-09-29T10:09:15.462Z,12.35
2022-09-29T10:11:43.111Z,13.77
2022-09-29T10:14:26.017Z,12.18
2022-09-29T10:17:03.325Z,12.52
2022-09-29T10:19:52.829Z,13.20
2022-09-29T10:24:47.509Z,12.68
2022-09-29T10:27:20.675Z,11.27
2022-09-29T10:29:49.570Z,10.88
2022-09-29T10:32:25.804Z,10.02
2022-09-29T10:35:02.641Z,9.52
2022-09-29T10:37:41.405Z,10.45
2022-09-29T10:40:07.733Z,9.93
2022-09-29T10:42:39.770Z,8.43
2022-09-29T10:45:25.900Z,8.05
2022-09-29T10:47:58.470Z,8.25
2022-09-29T10:50:26.358Z,9.65
2022-09-29T10:52:56.663Z,10.68
2022-09-29T10:55:26.058Z,10.20
2022-09-29T10:57:55.890Z,9.75
2022-09-29T11:00:35.524Z,9.43
2022-09-29T11:03:16.045Z,9.50
2022-09-29T11:06:02.220Z,9.35
2022-09-29T11:08:29.640Z,9.00
2022-09-29T11:11:20.632Z,10.93
2022-09-29T11:13:48.726Z,8.70
2022-09-29T11:16:23.918Z,8.07
2022-09-29T11:18:53.996Z,8.18
2022-09-29T11:21:20.392Z,8.75
2022-09-29T11:24:07.678Z,8.35
2022-09-29T11:26:43.942Z,8.02
2022-09-29T11:29:37.788Z,7.53
2022-09-29T11:32:19.687Z,7.75
2022-09-29T11:34:56.046Z,7.80
2022-09-29T11:37:34.989Z,8.70
2022-09-29T11:40:25.515Z,8.63
2022-09-29T11:42:58.743Z,8.10
2022-09-29T11:45:43.467Z,9.55
2022-09-29T11:48:30.016Z,8.98
2022-09-29T11:51:04.456Z,8.80
2022-09-29T11:54:08.055Z,9.68
2022-09-29T11:56:59.169Z,9.48
2022-09-29T11:59:59.624Z,10.10
2022-09-29T12:02:41.288Z,9.50
2022-09-29T12:05:29.635Z,9.40
2022-09-29T12:08:23.349Z,10.15
2022-09-29T12:11:13.079Z,10.00
2022-09-29T12:13:56.362Z,9.57
2022-09-29T12:16:29.796Z,10.73
2022-09-29T12:19:09.255Z,10.32
2022-09-29T12:21:46.963Z,11.43
2022-09-29T12:24:36.167Z,10.60
2022-09-29T12:27:08.185Z,10.23
2022-09-29T12:29:53.245Z,10.35
2022-09-29T12:32:31.594Z,10.20
2022-09-29T12:35:05.980Z,10.30
2022-09-29T12:37:46.771Z,9.02
2022-09-29T12:40:59.374Z,8.82
2022-09-29T12:43:52.036Z,8.88
2022-09-29T12:46:36.919Z,9.30
2022-09-29T12:49:22.029Z,10.40
2022-09-29T12:51:50.553Z,10.32
2022-09-29T12:54:39.239Z,10.02
2022-09-29T12:57:08.836Z,9.60
2022-09-29T12:59:48.985Z,8.82
2022-09-29T13:02:37.474Z,9.48
2022-09-29T13:05:33.557Z,6.70
2022-09-29T13:08:25.927Z,7.50
2022-09-29T13:11:29.865Z,7.57
2022-09-29T13:14:22.603Z,7.30
2022-09-29T13:17:02.909Z,6.88
2022-09-29T13:19:57.879Z,6.65
2022-09-29T13:22:43.073Z,7.93
2022-09-29T13:25:23.826Z,7.40
2022-09-29T13:27:52.929Z,8.30
2022-09-29T13:30:24.520Z,8.18
2022-09-29T13:32:59.953Z,7.63
2022-09-29T13:35:27.476Z,8.93
2022-09-29T13:37:57.328Z,8.95
2022-09-29T13:40:26.769Z,8.40
2022-09-29T13:42:58.182Z,8.27
2022-09-29T13:45:27.986Z,8.95
2022-09-29T13:48:01.777Z,9.05
2022-09-29T13:50:50.840Z,11.15
2022-09-29T13:53:22.995Z,11.52
2022-09-29T13:56:12.217Z,11.05
2022-09-29T13:58:48.191Z,10.68
2022-09-29T14:01:31.724Z,11.73
2022-09-29T14:03:59.024Z,11.00
2022-09-29T14:06:43.227Z,13.35
2022-09-29T14:09:22.578Z,14.80
2022-09-29T14:11:51.786Z,22.00
2022-09-29T14:14:35.177Z,14.90
2022-09-29T14:17:06.330Z,13.82
2022-09-29T14:19:46.980Z,12.27
2022-09-29T14:22:32.193Z,12.50
2022-09-29T14:25:10.859Z,12.25
2022-09-29T14:27:40.697Z,12.15
2022-09-29T14:30:09.863Z,13.00
2022-09-29T14:32:52.201Z,12.43
2022-09-29T14:35:34.960Z,12.50
2022-09-29T14:38:28.715Z,12.15
2022-09-29T14:40:56.399Z,11.75
2022-09-29T14:43:47.970Z,12.70
2022-09-29T14:47:03.330Z,12.63
2022-09-29T14:50:10.208Z,13.25
2022-09-29T14:53:09.155Z,13.23
2022-09-29T14:55:44.597Z,12.15
2022-09-29T14:58:59.782Z,13.00
2022-09-29T15:01:28.963Z,12.45
2022-09-29T15:04:07.104Z,11.88
2022-09-29T15:06:33.664Z,12.73
2022-09-29T15:09:04.122Z,12.40
2022-09-29T15:11:39.197Z,13.40
2022-09-29T15:14:21.334Z,14.90
2022-09-29T15:17:12.242Z,13.48
2022-09-29T15:19:57.758Z,12.35
2022-09-29T15:22:52.698Z,13.00
2022-09-29T15:25:40.789Z,17.20
2022-09-29T15:28:19.145Z,13.02
2022-09-29T15:30:48.868Z,13.40
2022-09-29T15:33:22.498Z,19.35
2022-09-29T15:35:53.498Z,21.45
2022-09-29T15:38:40.198Z,17.00
2022-09-29T15:41:16.747Z,16.80
2022-09-29T15:43:51.628Z,12.88
2022-09-29T15:46:22.098Z,12.27
2022-09-29T15:49:17.355Z,12.80
2022-09-29T15:51:56.439Z,12.77
2022-09-29T15:54:24.041Z,12.00
2022-09-29T15:57:09.069Z,12.35
2022-09-29T15:59:53.219Z,10.70
2022-09-29T16:02:31.312Z,10.43
2022-09-29T16:05:04.735Z,10.35
2022-09-29T16:07:34.527Z,10.75
2022-09-29T16:10:13.234Z,9.73
2022-09-29T16:12:48.596Z,11.93
2022-09-29T16:15:50.852Z,11.18
2022-09-29T16:18:23.685Z,11.00
2022-09-29T16:20:51.834Z,11.38
2022-09-29T16:23:34.597Z,11.02
2022-09-29T16:26:06.726Z,11.50
2022-09-29T16:28:36.244Z,13.88
2022-09-29T16:31:30.169Z,12.00
2022-09-29T16:34:02.084Z,12.77
2022-09-29T16:36:36.704Z,12.27
2022-09-29T16:39:05.287Z,11.32
2022-09-29T16:41:38.037Z,11.75
2022-09-29T16:44:23.203Z,10.80
2022-09-29T16:47:12.870Z,12.10
2022-09-29T16:49:55.958Z,33.00
2022-09-29T16:52:41.204Z,12.52
2022-09-29T16:55:27.397Z,14.32
2022-09-29T16:58:03.573Z,14.27
2022-09-29T17:00:30.394Z,17.42
2022-09-29T17:02:57.754Z,12.80
2022-09-29T17:05:25.428Z,13.23
2022-09-29T17:08:00.171Z,27.98
2022-09-29T17:10:26.725Z,12.55
2022-09-29T17:12:54.659Z,12.25
2022-09-29T17:15:22.389Z,12.70
2022-09-29T17:17:50.781Z,11.55
2022-09-29T17:20:20.527Z,12.75
2022-09-29T17:22:48.810Z,11.00
2022-09-29T17:25:15.295Z,10.68
2022-09-29T17:28:02.798Z,10.60
2022-09-29T17:30:29.300Z,11.68
2022-09-29T17:32:58.063Z,11.60
2022-09-29T17:35:39.482Z,12.05
2022-09-29T17:38:11.179Z,12.80
2022-09-29T17:41:02.312Z,11.73
2022-09-29T17:43:31.256Z,12.77
2022-09-29T17:45:59.266Z,12.30
2022-09-29T17:48:26.870Z,12.13
2022-09-29T17:50:56.322Z,11.68
2022-09-29T17:53:25.247Z,12.02
2022-09-29T17:55:54.470Z,21.85
2022-09-29T17:58:22.735Z,20.23
2022-09-29T18:00:51.379Z,13.10
2022-09-29T18:03:19.231Z,12.82
2022-09-29T18:05:48.362Z,12.93
2022-09-29T18:08:17.605Z,12.13
2022-09-29T18:10:50.394Z,12.25
2022-09-29T18:13:16.880Z,12.27
2022-09-29T18:15:43.689Z,11.90
2022-09-29T18:18:12.375Z,12.40
2022-09-29T18:20:40.130Z,12.70
2022-09-29T18:23:06.561Z,12.07
2022-09-29T18:25:33.999Z,12.23
2022-09-29T18:28:01.473Z,11.23
2022-09-29T18:30:39.826Z,11.68
2022-09-29T18:33:12.608Z,12.55
2022-09-29T18:35:41.256Z,11.68
2022-09-29T18:38:08.489Z,10.82
2022-09-29T18:40:35.035Z,12.55
2022-09-29T18:43:01.980Z,13.07
2022-09-29T18:45:31.045Z,12.38
2022-09-29T18:48:06.306Z,11.93
2022-09-29T18:50:39.153Z,12.48
2022-09-29T18:53:05.729Z,11.90
2022-09-29T18:55:32.329Z,13.10
2022-09-29T18:57:59.941Z,12.73
2022-09-29T19:00:31.697Z,11.98
2022-09-29T19:02:59.921Z,12.23
2022-09-29T19:05:29.778Z,11.48
2022-09-29T19:07:58.803Z,11.25
2022-09-29T19:10:25.895Z,11.82
2022-09-29T19:12:58.465Z,11.77
2022-09-29T19:15:25.957Z,11.68
2022-09-29T19:17:55.974Z,11.68
2022-09-29T19:20:24.664Z,11.80
2022-09-29T19:22:51.814Z,11.77
2022-09-29T19:25:29.009Z,14.40
2022-09-29T19:27:59.350Z,11.32
2022-09-29T19:30:26.475Z,11.88
2022-09-29T19:32:53.902Z,11.00
2022-09-29T19:35:23.464Z,10.52
2022-09-29T19:37:50.347Z,10.68
2022-09-29T19:40:22.244Z,10.13
2022-09-29T19:42:49.132Z,11.35
2022-09-29T19:45:15.853Z,10.73
2022-09-29T19:47:42.583Z,10.90
2022-09-29T19:50:28.530Z,10.07
2022-09-29T19:52:56.050Z,10.48
2022-09-29T19:55:23.480Z,8.20
2022-09-29T19:57:49.889Z,9.32
2022-09-29T20:00:19.931Z,9.20
2022-09-29T20:02:47.151Z,8.15
2022-09-29T20:05:15.464Z,8.65
2022-09-29T20:07:46.349Z,8.45
2022-09-29T20:10:15.196Z,8.60
2022-09-29T20:12:42.442Z,7.97
2022-09-29T20:15:11.789Z,8.25
2022-09-29T20:17:40.097Z,8.05
2022-09-29T20:20:08.505Z,8.10
2022-09-29T20:22:36.377Z,8.23
2022-09-29T20:25:05.255Z,7.88
2022-09-29T20:27:31.820Z,7.90
2022-09-29T20:29:58.333Z,7.97
2022-09-29T20:32:24.779Z,7.07
2022-09-29T20:34:51.316Z,6.78
2022-09-29T20:37:17.678Z,6.63
2022-09-29T20:39:44.212Z,6.10
2022-09-29T20:42:11.736Z,6.82
2022-09-29T20:44:38.280Z,6.47
2022-09-29T20:47:05.875Z,5.82
2022-09-29T20:49:32.473Z,6.65
2022-09-29T20:51:59.223Z,6.45
2022-09-29T20:54:25.826Z,6.70
2022-09-29T20:56:53.544Z,6.57
2022-09-29T20:59:23.003Z,6.07
2022-09-29T21:01:50.758Z,6.70
2022-09-29T21:04:19.779Z,7.32
2022-09-29T21:06:49.134Z,5.80
2022-09-29T21:09:18.547Z,5.63
2022-09-29T21:11:47.062Z,5.63
2022-09-29T21:14:18.293Z,5.22
2022-09-29T21:16:47.094Z,4.95
2022-09-29T21:19:14.452Z,4.95
2022-09-29T21:21:41.452Z,4.70
2022-09-29T21:24:08.958Z,5.20
2022-09-29T21:26:35.398Z,4.53
2022-09-29T21:29:02.925Z,4.25
2022-09-29T21:31:32.087Z,4.60
2022-09-29T21:34:06.364Z,4.13
2022-09-29T21:36:35.382Z,3.45
2022-09-29T21:39:06.273Z,3.80
2022-09-29T21:41:38.011Z,3.50
2022-09-29T21:44:09.243Z,3.30
2022-09-29T21:46:35.902Z,3.25
2022-09-29T21:49:04.751Z,3.25
2022-09-29T21:51:37.752Z,3.15
2022-09-29T21:54:06.174Z,3.00
2022-09-29T21:56:36.224Z,3.20
2022-09-29T21:59:02.688Z,3.20
2022-09-29T22:01:29.247Z,3.13
2022-09-29T22:03:56.546Z,3.45
2022-09-29T22:06:28.715Z,3.25
2022-09-29T22:08:56.123Z,3.45
2022-09-29T22:11:25.882Z,3.42
2022-09-29T22:13:55.695Z,3.58
2022-09-29T22:16:25.857Z,3.70
2022-09-29T22:19:18.326Z,3.40
2022-09-29T22:21:40.375Z,3.17
2022-09-29T22:24:07.197Z,3.67
2022-09-29T22:26:33.576Z,3.83
2022-09-29T22:29:01.543Z,3.90
2022-09-29T22:31:29.490Z,3.70
2022-09-29T22:34:01.250Z,4.10
2022-09-29T22:36:30.279Z,3.40
2022-09-29T22:38:56.823Z,3.75
2022-09-29T22:41:24.120Z,3.65
2022-09-29T22:43:52.210Z,4.13
2022-09-29T22:46:19.085Z,4.13
2022-09-29T22:48:45.502Z,4.22
2022-09-29T22:51:11.981Z,4.30
2022-09-29T22:53:38.465Z,4.60
2022-09-29T22:56:12.006Z,4.55
2022-09-29T22:58:39.995Z,4.75
2022-09-29T23:01:13.716Z,4.90
2022-09-29T23:03:42.217Z,5.32
2022-09-29T23:06:09.470Z,5.35
2022-09-29T23:08:36.730Z,5.60
2022-09-29T23:11:05.412Z,5.47
2022-09-29T23:13:32.826Z,5.28
2022-09-29T23:16:11.688Z,5.32
2022-09-29T23:18:44.071Z,5.53
2022-09-29T23:21:13.283Z,5.63
2022-09-29T23:23:39.620Z,5.75
2022-09-29T23:26:06.154Z,5.47
2022-09-29T23:28:32.491Z,6.70
2022-09-29T23:31:06.768Z,6.13
2022-09-29T23:33:33.798Z,6.20
2022-09-29T23:36:12.160Z,5.85
2022-09-29T23:38:58.975Z,5.35
2022-09-29T23:41:27.280Z,5.82
2022-09-29T23:43:55.529Z,5.40
2022-09-29T23:46:26.664Z,5.57
2022-09-29T23:48:53.308Z,5.63
2022-09-29T23:51:19.751Z,5.90
2022-09-29T23:53:46.110Z,5.80
2022-09-29T23:56:12.607Z,5.78
2022-09-29T23:58:39.045Z,6.07
